Time;durP1;ratioP1;P1;durP2;ratioP2;P2;SDS_P1;SDS_P2;PMS_P1;PMS_P2;Temp;Humidity;BMP_temperature;BMP_pressure;BME280_temperature;BME280_humidity;BME280_pressure;Samples;Min_cycle;Max_cycle;Signal;HPM_P1;HPM_P2
2022/05/06 00:00:25;;;;;;;9.82;5.07;;;10.20;84.10;;;;;;5052204;28;20064;-73
2022/05/06 00:02:53;;;;;;;10.65;5.07;;;10.30;84.00;;;;;;5034296;28;20068;-73
2022/05/06 00:05:20;;;;;;;7.53;4.50;;;10.40;83.90;;;;;;5059423;28;20155;-73
2022/05/06 00:07:48;;;;;;;6.68;4.70;;;10.50;83.70;;;;;;5064483;28;20045;-73
2022/05/06 00:10:16;;;;;;;9.73;4.43;;;10.60;83.60;;;;;;5055354;28;20048;-73
2022/05/06 00:12:43;;;;;;;7.90;4.45;;;10.70;83.40;;;;;;5051863;28;20045;-73
2022/05/06 00:15:11;;;;;;;8.05;4.57;;;10.80;83.30;;;;;;5050889;28;20056;-73
2022/05/06 00:17:39;;;;;;;9.68;4.43;;;10.90;83.20;;;;;;5051896;28;20056;-73
2022/05/06 00:20:07;;;;;;;9.45;4.38;;;10.90;83.00;;;;;;5051047;28;20051;-73
2022/05/06 00:22:35;;;;;;;11.77;4.63;;;11.00;82.90;;;;;;5040101;28;20063;-73
2022/05/06 00:25:03;;;;;;;10.15;4.85;;;11.10;82.80;;;;;;5058254;28;20041;-73
2022/05/06 00:27:30;;;;;;;7.93;4.40;;;11.20;82.70;;;;;;5061491;28;20048;-73
2022/05/06 00:29:58;;;;;;;9.07;4.63;;;11.20;82.50;;;;;;5035002;28;20401;-73
2022/05/06 00:32:28;;;;;;;7.40;4.82;;;11.30;82.40;;;;;;5054191;28;20044;-73
2022/05/06 00:34:55;;;;;;;9.68;4.95;;;11.30;82.30;;;;;;5042154;28;20051;-73
2022/05/06 00:37:23;;;;;;;8.63;5.15;;;11.40;82.30;;;;;;5057425;28;20045;-72
2022/05/06 00:39:51;;;;;;;9.35;4.97;;;11.40;82.20;;;;;;5058459;28;20048;-73
2022/05/06 00:42:19;;;;;;;9.93;5.13;;;11.40;82.20;;;;;;5030425;28;20045;-73
2022/05/06 00:44:47;;;;;;;9.90;5.85;;;11.40;82.10;;;;;;5037836;28;20045;-73
2022/05/06 00:47:19;;;;;;;14.43;6.10;;;11.50;82.10;;;;;;5022700;28;20505;-74
2022/05/06 00:49:47;;;;;;;9.50;5.10;;;11.50;82.00;;;;;;5056384;28;20041;-73
2022/05/06 00:52:16;;;;;;;11.60;5.55;;;11.50;82.00;;;;;;5035604;28;20060;-74
2022/05/06 00:54:45;;;;;;;10.07;5.75;;;11.50;82.10;;;;;;5036883;28;20045;-73
2022/05/06 00:57:12;;;;;;;11.50;6.10;;;11.50;82.20;;;;;;5060476;28;20055;-73
2022/05/06 01:02:27;;;;;;;9.60;6.07;;;11.50;82.10;;;;;;5036863;28;20383;-73
2022/05/06 01:04:59;;;;;;;12.27;5.60;;;11.50;82.10;;;;;;5047989;28;20045;-73
2022/05/06 01:07:29;;;;;;;9.60;5.40;;;11.50;82.20;;;;;;5060792;28;20063;-74
2022/05/06 01:09:56;;;;;;;10.63;5.35;;;11.50;82.20;;;;;;5055568;28;20053;-73
2022/05/06 01:12:25;;;;;;;7.57;4.38;;;11.50;82.00;;;;;;5033956;28;20406;-74
2022/05/06 01:14:52;;;;;;;9.00;4.32;;;11.60;81.30;;;;;;5049677;28;20059;-73
2022/05/06 01:17:25;;;;;;;7.53;3.88;;;11.60;80.50;;;;;;5055105;28;20040;-74
2022/05/06 01:19:53;;;;;;;10.13;3.97;;;11.60;79.80;;;;;;5073304;28;20049;-73
2022/05/06 01:22:21;;;;;;;8.10;3.90;;;11.60;78.60;;;;;;5061529;28;20065;-73
2022/05/06 01:24:49;;;;;;;6.03;3.38;;;11.60;77.70;;;;;;5088536;28;20048;-73
2022/05/06 01:27:23;;;;;;;10.35;4.10;;;11.60;77.20;;;;;;5075292;28;20501;-74
2022/05/06 01:29:51;;;;;;;7.90;3.92;;;11.70;76.50;;;;;;5079738;28;20405;-73
2022/05/06 01:32:22;;;;;;;8.30;3.63;;;11.60;76.50;;;;;;5071289;28;20040;-73
2022/05/06 01:34:51;;;;;;;6.55;3.95;;;11.60;76.40;;;;;;5075029;28;20047;-74
2022/05/06 01:37:22;;;;;;;5.47;3.75;;;11.60;76.20;;;;;;5080025;28;20036;-73
2022/05/06 01:39:55;;;;;;;8.55;4.00;;;11.60;76.00;;;;;;5077698;28;20056;-74
2022/05/06 01:42:27;;;;;;;6.00;3.85;;;11.70;76.00;;;;;;5069250;28;20052;-73
2022/05/06 01:45:09;;;;;;;7.95;3.60;;;11.70;76.00;;;;;;5088964;28;20397;-73
2022/05/06 01:47:38;;;;;;;5.80;3.75;;;11.70;76.00;;;;;;5088374;28;20036;-73
2022/05/06 01:50:12;;;;;;;6.13;3.67;;;11.70;75.60;;;;;;5079265;28;20048;-74
2022/05/06 01:52:41;;;;;;;7.32;3.85;;;11.60;75.40;;;;;;5083764;28;20047;-74
2022/05/06 01:55:12;;;;;;;6.85;4.40;;;11.60;75.50;;;;;;5073412;28;20108;-74
2022/05/06 01:58:04;;;;;;;9.80;4.55;;;11.60;75.60;;;;;;5077248;28;20059;-76
2022/05/06 02:00:36;;;;;;;7.82;4.57;;;11.50;75.80;;;;;;5086112;28;20036;-72
2022/05/06 02:05:59;;;;;;;11.13;4.90;;;11.50;76.10;;;;;;5073769;28;20056;-71
2022/05/06 02:08:27;;;;;;;9.88;5.47;;;11.40;76.20;;;;;;5067979;28;20048;-72
2022/05/06 02:10:55;;;;;;;8.90;5.10;;;11.40;76.40;;;;;;5082021;28;20041;-72
2022/05/06 02:13:23;;;;;;;10.63;5.60;;;11.30;76.50;;;;;;5069498;28;20048;-73
2022/05/06 02:16:09;;;;;;;10.50;5.68;;;11.40;76.70;;;;;;5070069;28;20043;-71
2022/05/06 02:18:47;;;;;;;8.38;5.20;;;11.30;76.80;;;;;;5039273;28;20060;-72
2022/05/06 02:21:39;;;;;;;14.07;6.05;;;11.30;76.90;;;;;;5045714;28;20045;-72
2022/05/06 02:24:23;;;;;;;9.80;5.35;;;11.30;77.00;;;;;;5066967;28;20041;-72
2022/05/06 02:27:12;;;;;;;11.07;5.85;;;11.30;77.10;;;;;;5039967;28;20040;-72
2022/05/06 02:33:12;;;;;;;10.60;5.80;;;11.30;77.20;;;;;;5045302;28;20044;-72
2022/05/06 02:35:22;;;;;;;10.45;5.47;;;11.30;77.30;;;;;;5050731;28;20479;-73
2022/05/06 02:37:51;;;;;;;11.95;5.60;;;11.30;77.40;;;;;;5039822;28;20067;-72
2022/05/06 02:40:21;;;;;;;10.73;6.32;;;11.30;77.40;;;;;;5050300;28;20056;-72
2022/05/06 02:42:48;;;;;;;10.30;6.47;;;11.20;77.50;;;;;;5045906;28;20060;-72
2022/05/06 02:45:16;;;;;;;14.43;7.25;;;11.20;77.80;;;;;;5043771;28;20052;-72
2022/05/06 02:47:45;;;;;;;10.40;6.78;;;11.20;77.90;;;;;;5048942;28;20057;-72
2022/05/06 02:50:12;;;;;;;13.75;8.15;;;11.10;78.40;;;;;;5043105;28;20494;-73
2022/05/06 02:52:40;;;;;;;12.55;7.80;;;11.10;78.40;;;;;;5042744;28;20048;-72
2022/05/06 02:55:08;;;;;;;16.35;7.25;;;11.10;78.80;;;;;;5035693;28;20059;-73
2022/05/06 02:57:36;;;;;;;13.65;7.72;;;11.00;78.90;;;;;;5045602;28;20528;-71
2022/05/06 03:00:04;;;;;;;11.52;7.28;;;11.00;79.10;;;;;;5048555;28;20479;-72
2022/05/06 03:02:34;;;;;;;16.00;7.80;;;10.90;79.20;;;;;;5037897;28;20051;-72
2022/05/06 03:05:06;;;;;;;17.17;9.27;;;10.90;79.50;;;;;;5037962;28;20059;-73
2022/05/06 03:07:35;;;;;;;12.48;8.60;;;10.90;79.60;;;;;;5020833;28;20049;-72
2022/05/06 03:10:04;;;;;;;17.13;8.52;;;10.90;79.80;;;;;;5025902;28;20063;-73
2022/05/06 03:12:36;;;;;;;16.10;7.90;;;10.80;79.90;;;;;;5019428;28;20049;-72
2022/05/06 03:15:11;;;;;;;13.38;7.40;;;10.80;80.00;;;;;;5022480;28;20044;-72
2022/05/06 03:18:04;;;;;;;13.15;7.95;;;10.80;80.10;;;;;;5063377;28;20044;-72
2022/05/06 03:20:32;;;;;;;14.50;7.45;;;10.80;80.40;;;;;;5051803;28;20053;-72
2022/05/06 03:23:00;;;;;;;14.57;8.15;;;10.80;80.40;;;;;;5061912;28;20056;-72
2022/05/06 03:25:28;;;;;;;11.80;8.35;;;10.80;80.50;;;;;;5049498;28;20047;-72
2022/05/06 03:27:59;;;;;;;15.95;8.65;;;10.80;80.50;;;;;;5052452;28;20048;-72
2022/05/06 03:30:29;;;;;;;17.73;9.13;;;10.80;80.60;;;;;;5039076;28;20383;-72
2022/05/06 03:33:13;;;;;;;13.73;7.30;;;10.80;80.60;;;;;;5047534;28;20044;-72
2022/05/06 03:35:41;;;;;;;16.67;7.47;;;10.80;80.70;;;;;;5061821;28;20057;-72
2022/05/06 03:38:09;;;;;;;15.93;7.97;;;10.80;80.80;;;;;;5033120;28;20049;-73
2022/05/06 03:40:42;;;;;;;14.75;8.50;;;10.80;80.90;;;;;;5018577;28;20056;-72
2022/05/06 03:43:10;;;;;;;17.42;9.07;;;10.80;80.90;;;;;;5046424;28;20493;-72
2022/05/06 03:45:40;;;;;;;11.30;8.45;;;10.80;81.00;;;;;;5038773;28;20044;-72
2022/05/06 03:48:09;;;;;;;15.73;8.23;;;10.80;81.00;;;;;;5039357;28;20041;-72
2022/05/06 03:53:31;;;;;;;13.43;8.10;;;10.80;81.10;;;;;;5038055;28;20434;-72
2022/05/06 03:55:58;;;;;;;12.52;7.82;;;10.80;81.10;;;;;;5017587;28;20053;-72
2022/05/06 03:58:35;;;;;;;;;;;10.70;81.20;;;;;;5035195;28;20053;-72
2022/05/06 04:01:09;;;;;;;11.88;7.53;;;10.70;81.20;;;;;;5034792;28;20291;-73
2022/05/06 04:03:41;;;;;;;12.18;6.95;;;10.70;81.20;;;;;;5046737;28;20405;-71
2022/05/06 04:06:13;;;;;;;12.48;7.82;;;10.60;81.20;;;;;;5035758;28;20052;-73
2022/05/06 04:08:43;;;;;;;13.63;7.80;;;10.60;81.30;;;;;;5059472;28;20045;-70
2022/05/06 04:11:13;;;;;;;15.05;7.97;;;10.60;81.40;;;;;;5058786;28;20497;-70
2022/05/06 04:13:44;;;;;;;10.85;7.15;;;10.60;81.40;;;;;;5050487;28;20079;-73
2022/05/06 04:16:12;;;;;;;11.25;6.78;;;10.50;81.50;;;;;;5070154;28;20075;-72
2022/05/06 04:18:41;;;;;;;11.68;7.32;;;10.50;81.60;;;;;;5034989;28;20041;-71
2022/05/06 04:23:57;;;;;;;12.50;7.75;;;10.30;81.60;;;;;;5039494;28;20516;-71
2022/05/06 04:26:25;;;;;;;19.73;8.25;;;10.30;81.80;;;;;;5034794;28;20053;-72
2022/05/06 04:28:55;;;;;;;15.30;7.50;;;10.30;81.90;;;;;;5034299;28;20045;-71
2022/05/06 04:31:24;;;;;;;13.88;7.63;;;10.20;82.00;;;;;;5039217;28;20044;-71
2022/05/06 04:33:56;;;;;;;11.52;7.28;;;10.10;82.00;;;;;;5043046;28;20064;-71
2022/05/06 04:36:31;;;;;;;14.32;7.43;;;10.10;82.10;;;;;;5042399;28;20049;-71
2022/05/06 04:39:04;;;;;;;16.77;7.95;;;10.00;82.10;;;;;;5038157;28;20056;-71
2022/05/06 04:41:36;;;;;;;13.65;7.97;;;10.00;82.20;;;;;;5036971;28;20037;-72
2022/05/06 04:44:05;;;;;;;14.13;7.68;;;10.00;82.20;;;;;;5039876;28;20036;-71
2022/05/06 04:46:36;;;;;;;14.50;7.05;;;10.00;82.30;;;;;;5041532;28;20041;-71
2022/05/06 04:49:03;;;;;;;11.50;7.75;;;9.90;82.30;;;;;;5069355;28;20049;-71
2022/05/06 04:51:32;;;;;;;14.60;7.72;;;9.90;82.40;;;;;;5044269;28;20049;-72
2022/05/06 04:54:01;;;;;;;10.75;7.32;;;9.90;82.40;;;;;;5045511;28;20040;-71
2022/05/06 04:56:29;;;;;;;11.25;6.93;;;9.90;82.40;;;;;;5044363;28;20056;-72
2022/05/06 04:59:08;;;;;;;12.00;7.22;;;9.90;82.40;;;;;;5040434;28;20040;-72
2022/05/06 05:01:50;;;;;;;17.90;8.53;;;9.90;82.50;;;;;;5044469;28;20056;-71
2022/05/06 05:04:19;;;;;;;12.02;7.22;;;9.90;82.50;;;;;;5049226;28;20289;-71
2022/05/06 05:06:48;;;;;;;13.60;7.95;;;9.90;82.50;;;;;;5040616;28;20052;-72
2022/05/06 05:09:18;;;;;;;12.90;7.57;;;10.00;82.50;;;;;;5036366;28;20053;-73
2022/05/06 05:11:48;;;;;;;15.13;7.93;;;10.00;82.40;;;;;;5041209;28;20040;-72
2022/05/06 05:14:26;;;;;;;10.45;7.97;;;10.00;82.40;;;;;;5052465;28;20037;-72
2022/05/06 05:16:53;;;;;;;16.63;8.02;;;10.10;82.30;;;;;;5066306;28;20057;-71
2022/05/06 05:19:21;;;;;;;15.32;7.95;;;10.10;82.30;;;;;;5075366;28;20502;-72
2022/05/06 05:21:54;;;;;;;14.02;7.78;;;10.20;82.30;;;;;;5059532;28;20060;-72
2022/05/06 05:24:22;;;;;;;17.73;8.48;;;10.20;82.30;;;;;;5030174;28;20052;-72
2022/05/06 05:26:50;;;;;;;15.15;8.65;;;10.20;82.20;;;;;;5051162;28;20048;-72
2022/05/06 05:29:21;;;;;;;13.88;8.30;;;10.30;82.20;;;;;;5051628;28;20041;-72
2022/05/06 05:31:51;;;;;;;14.75;8.60;;;10.30;82.20;;;;;;5053768;28;20041;-72
2022/05/06 05:34:19;;;;;;;14.45;8.65;;;10.30;82.10;;;;;;5036705;28;20478;-72
2022/05/06 05:36:49;;;;;;;14.73;8.70;;;10.40;82.10;;;;;;5040572;28;20048;-73
2022/05/06 05:39:17;;;;;;;18.73;8.48;;;10.50;82.10;;;;;;5025603;28;20101;-71
2022/05/06 05:41:47;;;;;;;13.13;8.68;;;10.60;82.00;;;;;;5048161;28;20083;-71
2022/05/06 05:49:55;;;;;;;14.68;8.98;;;10.70;81.90;;;;;;5032859;28;20048;-71
2022/05/06 05:52:24;;;;;;;16.30;8.75;;;10.60;81.80;;;;;;5041257;28;20036;-71
2022/05/06 05:54:53;;;;;;;14.15;8.77;;;10.70;81.90;;;;;;5046095;28;20409;-72
2022/05/06 05:57:22;;;;;;;21.15;9.55;;;10.70;81.90;;;;;;5047619;28;20375;-72
2022/05/06 05:59:50;;;;;;;13.25;8.65;;;10.70;81.80;;;;;;5071534;28;20045;-73
2022/05/06 06:02:20;;;;;;;13.82;8.70;;;10.70;81.80;;;;;;5042353;28;20502;-71
2022/05/06 06:04:51;;;;;;;18.13;8.75;;;10.80;81.80;;;;;;5051197;28;20056;-72
2022/05/06 06:07:19;;;;;;;15.05;9.07;;;10.90;81.70;;;;;;5054498;28;20045;-72
2022/05/06 06:09:53;;;;;;;16.42;9.32;;;10.90;81.60;;;;;;5070017;28;20044;-72
2022/05/06 06:12:22;;;;;;;16.40;8.55;;;11.00;81.50;;;;;;5042755;28;20486;-72
2022/05/06 06:14:55;;;;;;;12.52;8.50;;;11.00;81.40;;;;;;5037608;28;20053;-71
2022/05/06 06:17:23;;;;;;;13.07;8.68;;;11.00;81.30;;;;;;5072534;28;20052;-71
2022/05/06 06:19:53;;;;;;;16.10;9.05;;;11.00;81.20;;;;;;5091149;28;20036;-71
2022/05/06 06:22:21;;;;;;;16.20;9.68;;;11.00;81.30;;;;;;5091419;28;20049;-72
2022/05/06 06:24:59;;;;;;;16.08;9.23;;;11.00;81.40;;;;;;5086015;28;20055;-72
2022/05/06 06:27:28;;;;;;;13.57;8.27;;;11.00;81.50;;;;;;5075051;28;20532;-72
2022/05/06 06:29:59;;;;;;;16.77;8.55;;;11.00;81.50;;;;;;5078725;28;20028;-73
2022/05/06 06:32:27;;;;;;;15.60;7.88;;;11.20;81.50;;;;;;5076276;28;20044;-73
2022/05/06 06:34:55;;;;;;;10.15;7.30;;;11.30;81.40;;;;;;5074984;28;20409;-73
2022/05/06 06:37:27;;;;;;;11.98;6.47;;;11.40;81.30;;;;;;5074487;28;20040;-73
2022/05/06 06:39:56;;;;;;;10.25;4.97;;;11.60;81.30;;;;;;5086504;28;20036;-73
2022/05/06 06:42:25;;;;;;;9.15;5.57;;;11.80;81.10;;;;;;5090754;28;20051;-73
2022/05/06 06:45:11;;;;;;;8.00;5.35;;;11.80;81.10;;;;;;5079532;28;20056;-72
2022/05/06 06:47:58;;;;;;;9.93;5.10;;;11.90;80.80;;;;;;5083822;28;20039;-73
2022/05/06 06:50:39;;;;;;;7.30;5.15;;;12.00;80.50;;;;;;5068619;28;20075;-72
2022/05/06 06:53:28;;;;;;;7.68;5.38;;;12.00;80.50;;;;;;5080151;28;20402;-73
2022/05/06 06:55:56;;;;;;;9.55;5.88;;;12.10;80.80;;;;;;5086670;28;20052;-73
2022/05/06 06:58:25;;;;;;;7.60;4.85;;;12.20;80.70;;;;;;5072282;28;20520;-73
2022/05/06 07:00:53;;;;;;;6.20;4.13;;;12.30;80.60;;;;;;5082804;28;20047;-73
2022/05/06 07:03:21;;;;;;;7.15;5.03;;;12.20;80.40;;;;;;5085419;28;20068;-73
2022/05/06 07:14:07;;;;;;;7.18;5.70;;;12.30;80.60;;;;;;5093481;28;20040;-73
2022/05/06 07:16:37;;;;;;;9.93;5.63;;;12.30;80.40;;;;;;5090646;28;20056;-73
2022/05/06 07:19:05;;;;;;;6.68;5.80;;;12.30;80.60;;;;;;5073239;28;20410;-73
2022/05/06 07:21:33;;;;;;;8.50;5.07;;;12.30;80.70;;;;;;5062159;28;20060;-73
2022/05/06 07:24:01;;;;;;;5.97;4.88;;;12.40;80.70;;;;;;5053172;28;20041;-73
2022/05/06 07:26:30;;;;;;;9.18;5.45;;;12.50;80.60;;;;;;5052727;28;20045;-73
2022/05/06 07:28:57;;;;;;;6.97;4.25;;;12.60;80.50;;;;;;5052815;28;20040;-73
2022/05/06 07:31:25;;;;;;;8.52;5.35;;;12.60;80.60;;;;;;5056313;28;20041;-73
2022/05/06 07:33:53;;;;;;;7.63;4.47;;;12.70;80.50;;;;;;5052717;28;20053;-73
2022/05/06 07:36:23;;;;;;;5.85;4.97;;;12.80;80.60;;;;;;5058800;28;20044;-73
2022/05/06 07:38:51;;;;;;;5.03;4.35;;;12.80;80.30;;;;;;5045904;28;20045;-73
2022/05/06 07:41:19;;;;;;;5.10;4.05;;;12.80;80.40;;;;;;5055621;28;20053;-73
2022/05/06 07:43:47;;;;;;;5.32;3.97;;;12.80;80.60;;;;;;5064555;28;20044;-73
2022/05/06 07:46:14;;;;;;;6.30;4.53;;;12.80;80.70;;;;;;5060543;28;20075;-73
2022/05/06 07:48:42;;;;;;;7.38;4.70;;;12.90;80.50;;;;;;5041028;28;20134;-73
2022/05/06 07:51:10;;;;;;;7.88;4.30;;;12.90;80.60;;;;;;5061567;28;20147;-73
2022/05/06 07:53:38;;;;;;;6.03;4.40;;;13.10;80.20;;;;;;5070898;28;20048;-73
2022/05/06 07:56:05;;;;;;;5.35;3.53;;;13.10;80.50;;;;;;5042704;28;20041;-73
2022/05/06 07:58:33;;;;;;;7.78;4.40;;;13.30;80.40;;;;;;5052255;28;20053;-73
2022/05/06 08:01:00;;;;;;;7.63;3.85;;;13.30;79.90;;;;;;5064419;28;20055;-73
2022/05/06 08:06:14;;;;;;;5.60;4.40;;;13.40;80.00;;;;;;5057179;28;20492;-73
2022/05/06 08:08:42;;;;;;;7.85;4.40;;;13.60;79.60;;;;;;5067071;28;20067;-73
2022/05/06 08:11:09;;;;;;;6.55;4.35;;;13.60;79.50;;;;;;5052136;28;20498;-73
2022/05/06 08:13:37;;;;;;;6.05;3.97;;;13.60;79.40;;;;;;5052361;28;20048;-73
2022/05/06 08:16:05;;;;;;;4.35;3.35;;;13.60;79.70;;;;;;5052330;28;20398;-73
2022/05/06 08:18:32;;;;;;;6.68;4.05;;;13.70;79.40;;;;;;5051763;28;20057;-73
2022/05/06 08:21:00;;;;;;;7.93;3.67;;;13.70;79.30;;;;;;5051905;28;20057;-73
2022/05/06 08:23:27;;;;;;;12.57;3.95;;;13.80;79.50;;;;;;5034360;28;20163;-73
2022/05/06 08:25:55;;;;;;;4.97;3.85;;;13.80;79.70;;;;;;5051857;28;20056;-73
2022/05/06 08:28:23;;;;;;;4.28;3.03;;;14.00;79.50;;;;;;5052074;28;20041;-73
2022/05/06 08:30:52;;;;;;;6.82;3.25;;;14.10;78.90;;;;;;5066939;28;20051;-73
2022/05/06 08:33:21;;;;;;;3.50;2.63;;;14.20;78.50;;;;;;5072281;28;20131;-73
2022/05/06 08:35:49;;;;;;;5.63;3.45;;;14.20;77.90;;;;;;5072151;28;20405;-72
2022/05/06 08:38:17;;;;;;;5.15;3.08;;;14.20;78.10;;;;;;5054094;28;20041;-72
2022/05/06 08:40:47;;;;;;;5.22;3.20;;;14.30;78.30;;;;;;5040194;28;20052;-72
2022/05/06 08:43:15;;;;;;;5.75;3.05;;;14.30;78.00;;;;;;5052119;28;20049;-72
2022/05/06 08:51:32;;;;;;;5.60;3.28;;;14.30;77.70;;;;;;5061312;28;20037;-72
2022/05/06 08:54:01;;;;;;;4.70;2.40;;;14.30;77.40;;;;;;5076176;28;20056;-72
2022/05/06 08:56:30;;;;;;;3.65;2.35;;;14.40;77.30;;;;;;5057325;28;20052;-72
2022/05/06 08:58:59;;;;;;;3.47;2.13;;;14.50;76.50;;;;;;5053751;28;20052;-73
2022/05/06 09:01:26;;;;;;;5.47;3.50;;;14.50;76.00;;;;;;5055988;28;20048;-73
2022/05/06 09:03:55;;;;;;;6.88;3.08;;;14.50;76.30;;;;;;5055080;28;20053;-72
2022/05/06 09:06:29;;;;;;;4.05;3.00;;;14.60;76.60;;;;;;5055715;28;20420;-73
2022/05/06 09:08:58;;;;;;;4.82;3.72;;;14.70;76.10;;;;;;5054892;28;20052;-72
2022/05/06 09:14:20;;;;;;;8.07;2.45;;;14.80;76.10;;;;;;5055060;28;20071;-73
2022/05/06 09:16:50;;;;;;;5.45;3.28;;;14.90;74.80;;;;;;5062302;28;20044;-72
2022/05/06 09:19:25;;;;;;;7.20;3.22;;;14.80;75.20;;;;;;5075490;28;20056;-73
2022/05/06 09:22:10;;;;;;;7.65;2.67;;;14.90;75.60;;;;;;5059300;28;20041;-73
2022/05/06 09:24:39;;;;;;;2.33;1.40;;;15.10;74.70;;;;;;5037420;28;20402;-73
2022/05/06 09:27:12;;;;;;;4.82;2.80;;;15.20;74.40;;;;;;5055458;28;20049;-73
2022/05/06 09:29:41;;;;;;;7.00;2.78;;;15.20;74.40;;;;;;5068392;28;20051;-72
2022/05/06 09:32:13;;;;;;;6.38;3.35;;;15.30;74.70;;;;;;5055943;28;20056;-73
2022/05/06 09:34:41;;;;;;;5.57;2.65;;;15.40;74.10;;;;;;5055300;28;20041;-73
2022/05/06 09:37:09;;;;;;;3.55;2.38;;;15.60;73.40;;;;;;5069843;28;20045;-73
2022/05/06 09:39:40;;;;;;;13.60;3.17;;;15.60;73.50;;;;;;5040379;28;20040;-73
2022/05/06 09:42:08;;;;;;;5.10;2.47;;;15.70;73.20;;;;;;5038016;28;20045;-72
2022/05/06 09:44:36;;;;;;;5.90;2.05;;;15.80;72.40;;;;;;5055177;28;20067;-73
2022/05/06 09:47:09;;;;;;;4.13;1.83;;;15.90;72.00;;;;;;5055425;28;20041;-72
2022/05/06 09:49:43;;;;;;;2.47;1.80;;;16.00;70.80;;;;;;5055128;28;20435;-73
2022/05/06 09:52:13;;;;;;;3.03;2.13;;;16.00;70.30;;;;;;5059142;28;20045;-73
2022/05/06 09:54:43;;;;;;;3.97;1.77;;;16.00;70.30;;;;;;5044778;28;20056;-73
2022/05/06 09:57:12;;;;;;;4.07;1.58;;;16.00;70.80;;;;;;5056777;28;20056;-73
2022/05/06 09:59:40;;;;;;;4.57;1.98;;;16.10;69.90;;;;;;5061044;28;20494;-72
2022/05/06 10:02:08;;;;;;;8.63;2.20;;;16.10;70.10;;;;;;5054882;28;20068;-73
2022/05/06 10:04:38;;;;;;;6.82;1.92;;;16.20;70.80;;;;;;5053984;28;20048;-73
2022/05/06 10:07:13;;;;;;;9.48;2.40;;;16.30;70.00;;;;;;5054507;28;20052;-73
2022/05/06 10:10:09;;;;;;;3.92;1.52;;;16.40;70.50;;;;;;5054715;28;20049;-73
2022/05/06 10:12:40;;;;;;;3.95;1.58;;;16.50;68.80;;;;;;5073544;28;20403;-72
2022/05/06 10:15:11;;;;;;;2.05;1.40;;;16.40;69.00;;;;;;5074573;28;20055;-73
2022/05/06 10:17:54;;;;;;;3.33;1.40;;;16.40;69.30;;;;;;5075156;28;20077;-73
2022/05/06 10:20:37;;;;;;;2.42;1.50;;;16.60;69.30;;;;;;5093967;28;20435;-73
2022/05/06 10:23:09;;;;;;;6.80;1.95;;;16.80;68.40;;;;;;5090426;28;20040;-73
2022/05/06 10:25:40;;;;;;;11.18;2.30;;;16.90;67.20;;;;;;5084170;28;20051;-73
2022/05/06 10:34:27;;;;;;;3.53;1.23;;;16.60;68.80;;;;;;5082986;28;20405;-72
2022/05/06 10:36:57;;;;;;;3.00;1.50;;;16.40;68.40;;;;;;5083175;28;20052;-72
2022/05/06 10:39:38;;;;;;;12.27;1.90;;;16.30;69.30;;;;;;5092187;28;20517;-73
2022/05/06 10:42:07;;;;;;;3.83;1.58;;;16.10;70.10;;;;;;5083351;28;20040;-73
2022/05/06 10:44:42;;;;;;;5.43;1.70;;;16.00;70.70;;;;;;5095794;28;20060;-72
2022/05/06 10:47:12;;;;;;;6.10;1.48;;;15.90;70.80;;;;;;5077484;28;20056;-73
2022/05/06 10:49:41;;;;;;;3.00;1.25;;;15.80;71.20;;;;;;5072606;28;20033;-72
2022/05/06 10:52:24;;;;;;;2.08;1.10;;;15.70;71.30;;;;;;5073107;28;20060;-72
2022/05/06 10:55:03;;;;;;;3.10;1.10;;;15.80;71.20;;;;;;5072975;28;20064;-72
2022/05/06 10:57:52;;;;;;;1.95;0.93;;;15.80;71.30;;;;;;5074846;28;20056;-73
2022/05/06 11:00:21;;;;;;;1.33;0.88;;;15.80;70.70;;;;;;5083394;28;20055;-73
2022/05/06 11:02:50;;;;;;;4.90;1.35;;;15.80;70.90;;;;;;5093799;28;20040;-72
2022/05/06 11:05:20;;;;;;;4.72;1.00;;;15.80;71.00;;;;;;5080909;28;20410;-72
2022/05/06 11:07:49;;;;;;;3.85;1.85;;;15.70;71.10;;;;;;5092383;28;20048;-72
2022/05/06 11:10:26;;;;;;;1.73;0.60;;;15.70;71.20;;;;;;5084073;28;20036;-72
2022/05/06 11:13:00;;;;;;;3.38;1.00;;;15.80;71.50;;;;;;5087364;28;20489;-74
2022/05/06 11:15:31;;;;;;;0.60;0.60;;;15.90;71.20;;;;;;5088256;28;20051;-74
2022/05/06 11:18:01;;;;;;;3.88;0.70;;;16.00;71.00;;;;;;5050331;28;20486;-74
2022/05/06 11:20:32;;;;;;;2.03;0.50;;;16.10;70.60;;;;;;5054239;28;20037;-74
2022/05/06 11:23:05;;;;;;;1.48;0.70;;;16.20;70.30;;;;;;5051295;28;20053;-73
2022/05/06 11:25:38;;;;;;;1.80;0.95;;;16.10;70.50;;;;;;5068254;28;20052;-73
2022/05/06 11:28:20;;;;;;;5.07;0.70;;;16.20;70.40;;;;;;5067806;28;20052;-72
2022/05/06 11:30:50;;;;;;;5.95;1.25;;;16.10;70.30;;;;;;5050081;28;20048;-74
2022/05/06 11:33:28;;;;;;;1.63;0.60;;;16.10;69.80;;;;;;5050983;28;20048;-74
2022/05/06 11:36:05;;;;;;;1.42;0.70;;;16.20;69.80;;;;;;5068212;28;20064;-74
2022/05/06 11:38:42;;;;;;;2.72;0.80;;;16.20;69.70;;;;;;5069020;28;20120;-74
2022/05/06 11:41:14;;;;;;;1.13;0.50;;;16.30;69.80;;;;;;5069304;28;20051;-74
2022/05/06 11:43:44;;;;;;;1.90;0.70;;;16.40;69.20;;;;;;5068774;28;20063;-74
2022/05/06 11:49:06;;;;;;;4.28;0.43;;;16.30;67.60;;;;;;5068255;28;20553;-74
2022/05/06 11:51:44;;;;;;;0.95;0.30;;;16.30;68.00;;;;;;5068921;28;20053;-73
2022/05/06 11:54:15;;;;;;;0.13;0.13;;;16.30;68.20;;;;;;5068989;28;20498;-73
2022/05/06 11:56:44;;;;;;;4.93;0.40;;;16.50;68.10;;;;;;5060362;28;20052;-74
2022/05/06 11:59:12;;;;;;;1.10;0.30;;;16.50;67.50;;;;;;5031553;28;20052;-73
2022/05/06 12:01:41;;;;;;;4.03;0.45;;;16.50;67.50;;;;;;5048908;28;20049;-73
2022/05/06 12:04:10;;;;;;;5.22;0.60;;;16.40;67.90;;;;;;5062539;28;20052;-73
2022/05/06 12:06:41;;;;;;;2.35;0.50;;;16.30;68.00;;;;;;5069035;28;20059;-73
2022/05/06 12:09:14;;;;;;;3.85;0.60;;;16.30;68.20;;;;;;5069042;28;20056;-73
2022/05/06 12:11:43;;;;;;;1.35;0.47;;;16.30;68.70;;;;;;5051053;28;20064;-73
2022/05/06 12:14:18;;;;;;;2.03;0.40;;;16.30;68.70;;;;;;5068903;28;20076;-74
2022/05/06 12:16:56;;;;;;;0.40;0.20;;;16.50;68.10;;;;;;5062474;28;20056;-73
2022/05/06 12:19:41;;;;;;;0.35;0.22;;;16.60;66.80;;;;;;5049045;28;20057;-74
2022/05/06 12:22:13;;;;;;;0.70;0.38;;;16.60;66.80;;;;;;5059853;28;20059;-74
2022/05/06 12:24:52;;;;;;;0.80;0.30;;;16.70;66.50;;;;;;5068945;28;20500;-74
2022/05/06 12:27:28;;;;;;;0.80;0.30;;;16.60;66.00;;;;;;5068726;28;20052;-74
2022/05/06 12:30:01;;;;;;;0.77;0.17;;;16.60;65.60;;;;;;5051042;28;20127;-74
2022/05/06 12:32:29;;;;;;;4.05;0.40;;;16.60;65.40;;;;;;5068874;28;20048;-74
2022/05/06 12:35:03;;;;;;;0.32;0.17;;;16.80;66.10;;;;;;5051897;28;20049;-75
2022/05/06 12:37:32;;;;;;;0.50;0.20;;;16.90;65.40;;;;;;5070374;28;20052;-72
2022/05/06 12:40:00;;;;;;;0.47;0.20;;;17.00;64.60;;;;;;5050652;28;20070;-73
2022/05/06 12:42:28;;;;;;;0.85;0.32;;;17.10;64.70;;;;;;5068764;28;20055;-73
2022/05/06 12:45:16;;;;;;;1.88;0.32;;;17.00;64.20;;;;;;5068905;28;20044;-73
2022/05/06 12:50:30;;;;;;;1.80;0.35;;;16.70;65.10;;;;;;5069031;28;20079;-73
2022/05/06 12:52:57;;;;;;;1.48;0.40;;;16.60;65.30;;;;;;5067551;28;20498;-74
2022/05/06 12:55:25;;;;;;;0.73;0.32;;;16.60;65.40;;;;;;5068713;28;20056;-74
2022/05/06 12:57:52;;;;;;;0.85;0.30;;;16.50;65.40;;;;;;5068712;28;20052;-74
2022/05/06 13:00:21;;;;;;;0.15;0.10;;;16.70;65.00;;;;;;5066852;28;20060;-74
2022/05/06 13:02:49;;;;;;;0.55;0.10;;;16.80;65.10;;;;;;5066457;28;20052;-74
2022/05/06 13:05:16;;;;;;;0.65;0.13;;;17.00;64.30;;;;;;5066876;28;20079;-73
2022/05/06 13:07:45;;;;;;;0.88;0.30;;;17.10;64.50;;;;;;5066675;28;20041;-74
2022/05/06 13:10:13;;;;;;;0.35;0.10;;;17.30;64.30;;;;;;5065472;28;20049;-73
2022/05/06 13:12:40;;;;;;;0.40;0.10;;;17.50;63.20;;;;;;5066087;28;20047;-74
2022/05/06 13:15:08;;;;;;;0.93;0.10;;;17.70;62.90;;;;;;5067339;28;20060;-73
2022/05/06 13:17:36;;;;;;;0.47;0.20;;;17.80;61.80;;;;;;5056742;28;20071;-74
2022/05/06 13:20:04;;;;;;;0.50;0.15;;;17.80;61.90;;;;;;5068395;28;20078;-74
2022/05/06 13:22:32;;;;;;;1.85;0.20;;;17.80;62.30;;;;;;5057665;28;20064;-74
2022/05/06 13:25:02;;;;;;;0.75;0.30;;;17.90;61.70;;;;;;5047219;28;20057;-74
2022/05/06 13:27:29;;;;;;;0.90;0.10;;;18.00;60.20;;;;;;5058648;28;20052;-74
2022/05/06 13:29:57;;;;;;;0.00;0.00;;;18.30;60.70;;;;;;5048710;28;20056;-73
2022/05/06 13:32:26;;;;;;;0.60;0.10;;;18.80;58.10;;;;;;5050834;28;20049;-74
2022/05/06 13:34:54;;;;;;;0.10;0.10;;;18.70;57.70;;;;;;5020192;28;20049;-74
2022/05/06 13:37:22;;;;;;;4.78;0.55;;;18.40;58.60;;;;;;5037284;28;20490;-73
2022/05/06 13:39:50;;;;;;;4.57;0.65;;;18.00;59.20;;;;;;5054413;28;20061;-74
2022/05/06 13:42:19;;;;;;;9.57;0.45;;;17.70;60.70;;;;;;5024603;28;20314;-74
2022/05/06 13:44:47;;;;;;;3.10;0.38;;;17.50;61.10;;;;;;5057327;28;20055;-75
2022/05/06 13:47:15;;;;;;;3.25;0.22;;;17.30;62.20;;;;;;5074147;28;20398;-74
2022/05/06 13:49:44;;;;;;;2.58;0.32;;;17.20;63.30;;;;;;5057123;28;20056;-74
2022/05/06 13:52:14;;;;;;;0.10;0.10;;;17.20;63.40;;;;;;5036341;28;20510;-74